createdAt,value
2023-01-23T00:01:46.173Z,7.82
2023-01-23T00:04:40.180Z,11.30
2023-01-23T00:07:27.141Z,7.80
2023-01-23T00:10:08.148Z,8.23
2023-01-23T00:13:03.166Z,7.20
2023-01-23T00:15:50.182Z,12.15
2023-01-23T00:18:24.244Z,7.82
2023-01-23T00:21:16.205Z,9.52
2023-01-23T00:24:03.162Z,13.88
2023-01-23T00:26:57.133Z,5.82
2023-01-23T00:29:44.159Z,7.53
2023-01-23T00:32:18.234Z,10.20
2023-01-23T00:35:07.155Z,20.58
2023-01-23T00:37:41.218Z,17.20
2023-01-23T00:40:29.185Z,11.50
2023-01-23T00:43:03.256Z,9.80
2023-01-23T00:45:50.155Z,4.88
2023-01-23T00:48:31.124Z,5.78
2023-01-23T00:51:25.198Z,6.68
2023-01-23T00:56:46.223Z,10.68
2023-01-23T00:59:27.188Z,8.20
2023-01-23T01:02:07.347Z,6.07
2023-01-23T01:04:48.166Z,5.05
2023-01-23T01:07:29.171Z,6.47
2023-01-23T01:10:03.228Z,5.78
2023-01-23T01:12:50.147Z,6.35
2023-01-23T01:15:31.281Z,7.88
2023-01-23T01:18:12.143Z,6.20
2023-01-23T01:21:06.148Z,8.55
2023-01-23T01:23:53.189Z,8.25
2023-01-23T01:26:27.264Z,8.68
2023-01-23T01:29:14.232Z,10.45
2023-01-23T01:31:55.162Z,12.35
2023-01-23T01:34:49.147Z,8.02
2023-01-23T01:37:36.173Z,6.28
2023-01-23T01:40:11.245Z,7.10
2023-01-23T01:43:09.200Z,7.68
2023-01-23T01:46:33.168Z,7.88
2023-01-23T01:49:18.198Z,5.35
2023-01-23T01:52:11.216Z,6.78
2023-01-23T01:55:00.188Z,9.45
2023-01-23T01:57:52.172Z,9.68
2023-01-23T02:00:26.218Z,8.45
2023-01-23T02:03:15.157Z,5.20
2023-01-23T02:05:57.183Z,5.88
2023-01-23T02:09:03.179Z,8.15
2023-01-23T02:11:37.171Z,7.63
2023-01-23T02:14:25.188Z,7.00
2023-01-23T02:17:01.147Z,6.38
2023-01-23T02:19:58.160Z,7.15
2023-01-23T02:22:53.181Z,7.35
2023-01-23T02:25:34.215Z,7.72
2023-01-23T02:28:16.185Z,7.28
2023-01-23T02:30:57.270Z,5.95
2023-01-23T02:33:37.161Z,5.68
2023-01-23T02:36:18.338Z,6.20
2023-01-23T02:38:59.184Z,7.65
2023-01-23T02:41:46.339Z,6.78
2023-01-23T02:44:41.187Z,6.88
2023-01-23T02:47:36.147Z,4.90
2023-01-23T02:50:24.177Z,8.63
2023-01-23T02:52:58.516Z,7.88
2023-01-23T02:55:50.195Z,4.65
2023-01-23T02:58:49.177Z,9.15
2023-01-23T03:01:43.168Z,5.28
2023-01-23T03:04:37.171Z,4.75
2023-01-23T03:07:25.195Z,6.55
2023-01-23T03:10:07.502Z,6.25
2023-01-23T03:12:50.209Z,7.50
2023-01-23T03:15:31.593Z,5.60
2023-01-23T03:18:12.206Z,5.32
2023-01-23T03:21:00.198Z,6.22
2023-01-23T03:23:34.350Z,6.75
2023-01-23T03:26:22.165Z,6.97
2023-01-23T03:29:14.669Z,5.57
2023-01-23T03:32:02.167Z,8.00
2023-01-23T03:34:36.314Z,7.28
2023-01-23T03:37:26.185Z,5.47
2023-01-23T03:40:19.339Z,11.57
2023-01-23T03:43:07.189Z,7.53
2023-01-23T03:45:47.242Z,7.10
2023-01-23T03:48:28.258Z,9.02
2023-01-23T03:51:09.189Z,8.27
2023-01-23T03:53:50.253Z,7.93
2023-01-23T03:56:30.197Z,5.03
2023-01-23T03:59:11.307Z,7.30
2023-01-23T04:01:59.192Z,6.95
2023-01-23T04:04:33.422Z,5.57
2023-01-23T04:07:20.200Z,6.38
2023-01-23T04:10:01.216Z,6.85
2023-01-23T04:12:58.246Z,8.27
2023-01-23T04:15:45.192Z,6.45
2023-01-23T04:18:26.171Z,6.80
2023-01-23T04:21:13.184Z,10.88
2023-01-23T04:23:54.215Z,10.18
2023-01-23T04:26:48.176Z,6.07
2023-01-23T04:29:35.201Z,7.68
2023-01-23T04:32:09.939Z,5.55
2023-01-23T04:34:57.152Z,6.43
2023-01-23T04:37:38.181Z,7.53
2023-01-23T04:40:32.189Z,5.95
2023-01-23T04:43:20.222Z,8.85
2023-01-23T04:45:54.357Z,7.82
2023-01-23T04:48:41.223Z,5.55
2023-01-23T04:51:15.283Z,8.02
2023-01-23T04:54:02.185Z,8.10
2023-01-23T04:56:36.308Z,9.75
2023-01-23T04:59:24.162Z,8.20
2023-01-23T05:02:05.206Z,13.02
2023-01-23T05:04:52.176Z,8.35
2023-01-23T05:07:40.155Z,8.70
2023-01-23T05:10:14.623Z,8.90
2023-01-23T05:13:02.190Z,6.97
2023-01-23T05:15:42.233Z,7.22
2023-01-23T05:18:23.244Z,8.10
2023-01-23T05:21:03.186Z,10.52
2023-01-23T05:23:51.197Z,7.85
2023-01-23T05:26:25.155Z,8.50
2023-01-23T05:29:13.223Z,8.38
2023-01-23T05:31:47.228Z,7.18
2023-01-23T05:34:35.167Z,7.88
2023-01-23T05:37:09.131Z,6.55
2023-01-23T05:39:57.200Z,6.07
2023-01-23T05:42:37.212Z,8.15
2023-01-23T05:45:25.166Z,7.80
2023-01-23T05:48:05.210Z,9.07
2023-01-23T05:50:46.288Z,7.18
2023-01-23T05:53:26.189Z,8.50
2023-01-23T05:56:14.214Z,7.60
2023-01-23T05:58:48.280Z,8.25
2023-01-23T06:01:36.256Z,8.38
2023-01-23T06:04:10.245Z,7.28
2023-01-23T06:06:58.153Z,9.70
2023-01-23T06:09:32.190Z,7.03
2023-01-23T06:12:20.208Z,7.95
2023-01-23T06:15:14.182Z,10.25
2023-01-23T06:18:01.242Z,8.43
2023-01-23T06:20:35.260Z,9.63
2023-01-23T06:23:23.217Z,8.70
2023-01-23T06:26:04.181Z,7.43
2023-01-23T06:28:51.203Z,4.07
2023-01-23T06:31:25.379Z,6.38
2023-01-23T06:34:14.186Z,5.68
2023-01-23T06:36:55.178Z,5.65
2023-01-23T06:39:42.168Z,5.15
2023-01-23T06:42:24.177Z,5.85
2023-01-23T06:45:19.507Z,7.47
2023-01-23T06:48:13.187Z,8.80
2023-01-23T06:51:00.284Z,6.40
2023-01-23T06:53:34.282Z,9.48
2023-01-23T06:56:21.221Z,7.15
2023-01-23T06:59:02.195Z,9.10
2023-01-23T07:01:50.230Z,8.52
2023-01-23T07:04:31.169Z,6.80
2023-01-23T07:07:25.240Z,7.28
2023-01-23T07:10:14.170Z,13.10
2023-01-23T07:12:48.284Z,11.85
2023-01-23T07:15:35.177Z,9.90
2023-01-23T07:18:16.164Z,11.43
2023-01-23T07:20:57.435Z,13.40
2023-01-23T07:23:45.219Z,19.42
2023-01-23T07:26:19.241Z,23.45
2023-01-23T07:29:07.184Z,27.52
2023-01-23T07:31:47.219Z,25.40
2023-01-23T07:34:35.175Z,18.05
2023-01-23T07:37:09.206Z,13.10
2023-01-23T07:39:57.323Z,11.55
2023-01-23T07:42:37.181Z,13.75
2023-01-23T07:45:18.268Z,11.60
2023-01-23T07:47:59.192Z,10.50
2023-01-23T07:50:40.279Z,8.68
2023-01-23T07:53:21.214Z,10.30
2023-01-23T07:56:02.291Z,11.10
2023-01-23T07:58:42.203Z,11.63
2023-01-23T08:01:23.348Z,10.73
2023-01-23T08:04:03.282Z,13.63
2023-01-23T08:06:51.189Z,13.25
2023-01-23T08:09:45.214Z,18.15
2023-01-23T08:12:32.229Z,15.23
2023-01-23T08:15:13.208Z,12.75
2023-01-23T08:18:08.228Z,10.90
2023-01-23T08:21:02.193Z,7.90
2023-01-23T08:23:43.280Z,11.10
2023-01-23T08:26:24.215Z,13.88
2023-01-23T08:29:12.181Z,8.25
2023-01-23T08:31:46.236Z,8.88
2023-01-23T08:34:34.182Z,11.18
2023-01-23T08:37:08.193Z,8.95
2023-01-23T08:39:56.222Z,11.05
2023-01-23T08:42:37.176Z,9.65
2023-01-23T08:45:18.341Z,11.82
2023-01-23T08:47:59.197Z,12.50
2023-01-23T08:50:40.272Z,13.00
2023-01-23T08:53:21.210Z,18.13
2023-01-23T08:56:19.219Z,15.15
2023-01-23T08:59:00.208Z,12.02
2023-01-23T09:01:41.252Z,8.40
2023-01-23T09:04:22.199Z,8.93
2023-01-23T09:07:03.319Z,8.20
2023-01-23T09:09:44.191Z,8.73
2023-01-23T09:12:32.188Z,10.95
2023-01-23T09:15:06.324Z,10.80
2023-01-23T09:17:54.223Z,14.48
2023-01-23T09:20:29.184Z,16.63
2023-01-23T09:23:17.230Z,11.95
2023-01-23T09:25:51.172Z,10.98
2023-01-23T09:28:39.216Z,12.13
2023-01-23T09:31:14.171Z,8.80
2023-01-23T09:34:02.233Z,8.43
2023-01-23T09:36:42.901Z,17.70
2023-01-23T09:39:31.241Z,11.02
2023-01-23T09:42:14.172Z,12.77
2023-01-23T09:45:00.291Z,16.20
2023-01-23T09:47:46.205Z,8.85
2023-01-23T09:50:35.284Z,9.98
2023-01-23T09:53:22.235Z,10.57
2023-01-23T09:56:32.293Z,10.57
2023-01-23T09:59:29.202Z,11.85
2023-01-23T10:02:10.416Z,8.13
2023-01-23T10:04:50.230Z,39.67
2023-01-23T10:07:53.204Z,14.52
2023-01-23T10:10:52.237Z,14.95
2023-01-23T10:13:51.260Z,15.52
2023-01-23T10:17:04.260Z,10.85
2023-01-23T10:20:11.334Z,13.20
2023-01-23T10:23:01.301Z,7.97
2023-01-23T10:25:52.193Z,10.55
2023-01-23T10:28:46.241Z,12.50
2023-01-23T10:31:35.384Z,14.27
2023-01-23T10:34:24.211Z,12.27
2023-01-23T10:37:11.316Z,8.32
2023-01-23T10:40:10.213Z,11.75
2023-01-23T10:42:44.320Z,14.30
2023-01-23T10:45:32.261Z,22.25
2023-01-23T10:48:06.521Z,18.05
2023-01-23T10:50:57.278Z,14.75
2023-01-23T10:53:31.283Z,28.50
2023-01-23T10:56:23.292Z,17.27
2023-01-23T10:58:57.275Z,21.10
2023-01-23T11:01:56.753Z,14.95
2023-01-23T11:04:33.458Z,15.52
2023-01-23T11:07:20.464Z,13.10
2023-01-23T11:10:00.345Z,20.55
2023-01-23T11:12:55.222Z,30.35
2023-01-23T11:15:43.223Z,48.35
2023-01-23T11:18:46.218Z,59.72
2023-01-23T11:21:31.283Z,40.67
2023-01-23T11:24:38.328Z,27.02
2023-01-23T11:27:26.285Z,202.00
2023-01-23T11:30:15.269Z,86.03
2023-01-23T11:33:10.218Z,175.32
2023-01-23T11:36:03.216Z,386.85
2023-01-23T11:38:55.221Z,1102.28
2023-01-23T11:41:31.330Z,528.08
2023-01-23T11:44:22.663Z,234.60
2023-01-23T11:47:00.389Z,357.08
2023-01-23T11:52:45.234Z,59.20
2023-01-23T11:55:51.240Z,30.00
2023-01-23T11:58:50.273Z,21.30
2023-01-23T12:02:02.158Z,23.98
2023-01-23T12:04:47.220Z,22.38
2023-01-23T12:07:29.290Z,13.48
2023-01-23T12:10:16.211Z,64.70
2023-01-23T12:13:17.390Z,75.97
2023-01-23T12:16:10.320Z,171.02
2023-01-23T12:19:09.309Z,80.63
2023-01-23T12:21:58.239Z,26.23
2023-01-23T12:24:42.305Z,18.40
2023-01-23T12:27:22.223Z,18.30
2023-01-23T12:30:28.224Z,10.10
2023-01-23T12:33:21.218Z,9.73
2023-01-23T12:36:11.210Z,9.60
2023-01-23T12:39:32.262Z,8.43
2023-01-23T12:42:17.316Z,9.23
2023-01-23T12:45:01.254Z,13.40
2023-01-23T12:47:52.222Z,9.18
2023-01-23T12:50:53.315Z,7.75
2023-01-23T12:53:36.077Z,14.07
2023-01-23T12:56:28.208Z,17.25
2023-01-23T12:59:32.252Z,16.58
2023-01-23T13:02:23.642Z,15.43
2023-01-23T13:05:11.235Z,28.88
2023-01-23T13:08:22.209Z,23.13
2023-01-23T13:11:27.719Z,29.42
2023-01-23T13:14:08.359Z,16.65
2023-01-23T13:17:00.313Z,11.68
2023-01-23T13:19:59.447Z,12.70
2023-01-23T13:22:47.229Z,13.52
2023-01-23T13:25:27.226Z,14.07
2023-01-23T13:28:35.404Z,9.27
2023-01-23T13:31:42.391Z,27.55
2023-01-23T13:34:30.246Z,29.48
2023-01-23T13:37:33.910Z,41.90
2023-01-23T13:40:33.253Z,14.73
2023-01-23T13:43:39.348Z,35.40
2023-01-23T13:46:30.348Z,32.28
2023-01-23T14:21:41.064Z,10.25
2023-01-23T14:24:29.341Z,12.27
2023-01-23T14:27:16.819Z,11.82
2023-01-23T14:30:23.254Z,11.65
2023-01-23T14:33:03.287Z,9.95
2023-01-23T14:35:46.252Z,16.38
2023-01-23T14:38:36.296Z,14.70
2023-01-23T14:41:19.074Z,20.33
2023-01-23T14:44:01.224Z,17.48
2023-01-23T14:46:46.595Z,14.57
2023-01-23T14:49:41.275Z,15.05
2023-01-23T14:52:31.337Z,11.68
2023-01-23T14:55:32.272Z,11.27
2023-01-23T14:58:20.225Z,14.52
2023-01-23T15:01:15.486Z,14.82
2023-01-23T15:04:10.264Z,10.57
2023-01-23T15:06:44.340Z,11.90
2023-01-23T15:09:40.249Z,10.63
2023-01-23T15:12:15.293Z,32.40
2023-01-23T15:15:03.279Z,14.82
2023-01-23T15:17:37.310Z,14.18
2023-01-23T15:20:39.232Z,16.98
2023-01-23T15:23:28.068Z,12.88
2023-01-23T15:26:26.224Z,15.20
2023-01-23T15:29:24.245Z,40.83
2023-01-23T15:31:58.909Z,36.35
2023-01-23T15:34:47.273Z,24.95
2023-01-23T15:37:30.248Z,18.95
2023-01-23T15:40:11.319Z,27.00
2023-01-23T15:43:07.250Z,16.02
2023-01-23T15:45:48.371Z,20.60
2023-01-23T15:48:29.281Z,15.93
2023-01-23T15:51:17.235Z,11.98
2023-01-23T15:53:51.240Z,85.57
2023-01-23T15:56:41.275Z,85.32
2023-01-23T15:59:16.100Z,61.60
2023-01-23T16:02:03.277Z,50.47
2023-01-23T16:04:37.209Z,52.40
2023-01-23T16:07:44.029Z,294.42
2023-01-23T16:10:23.143Z,210.93
2023-01-23T16:13:12.220Z,214.25
2023-01-23T16:15:53.608Z,102.72
2023-01-23T16:18:34.344Z,55.92
2023-01-23T16:21:15.247Z,78.43
2023-01-23T16:24:04.718Z,52.53
2023-01-23T16:26:40.406Z,41.17
2023-01-23T16:29:44.271Z,29.25
2023-01-23T16:32:24.325Z,26.17
2023-01-23T16:35:05.364Z,12.02
2023-01-23T16:37:47.258Z,34.58
2023-01-23T16:40:33.746Z,34.78
2023-01-23T16:43:14.244Z,40.67
2023-01-23T16:46:03.250Z,37.45
2023-01-23T16:48:37.366Z,24.13
2023-01-23T16:51:30.278Z,16.52
2023-01-23T16:54:18.361Z,14.98
2023-01-23T16:57:01.347Z,6.25
2023-01-23T16:59:48.300Z,8.85
2023-01-23T17:02:41.282Z,25.95
2023-01-23T17:05:16.039Z,25.23
2023-01-23T17:08:03.237Z,29.85
2023-01-23T17:10:45.942Z,22.50
2023-01-23T17:13:35.458Z,63.33
2023-01-23T17:16:27.011Z,112.23
2023-01-23T17:19:10.361Z,124.25
2023-01-23T17:21:50.249Z,170.98
2023-01-23T17:24:38.266Z,76.18
2023-01-23T17:27:18.261Z,92.32
2023-01-23T17:30:06.275Z,53.92
2023-01-23T17:32:40.575Z,79.07
2023-01-23T17:35:35.299Z,52.22
2023-01-23T17:38:16.396Z,29.08
2023-01-23T17:41:04.290Z,66.25
2023-01-23T17:43:39.089Z,58.30
2023-01-23T17:46:41.273Z,48.05
2023-01-23T17:49:21.226Z,19.20
2023-01-23T17:52:10.252Z,24.48
2023-01-23T17:54:44.235Z,20.02
2023-01-23T17:57:32.286Z,31.42
2023-01-23T18:00:06.589Z,18.27
2023-01-23T18:02:54.269Z,35.22
2023-01-23T18:05:35.297Z,16.23
2023-01-23T18:08:26.388Z,38.25
2023-01-23T18:11:07.280Z,16.33
2023-01-23T18:13:56.333Z,13.80
2023-01-23T18:16:43.361Z,22.67
2023-01-23T18:19:28.384Z,47.70
2023-01-23T18:22:09.240Z,31.88
2023-01-23T18:24:57.287Z,7.45
2023-01-23T18:27:36.206Z,11.07
2023-01-23T18:30:30.297Z,16.48
2023-01-23T18:33:16.314Z,11.38
2023-01-23T18:36:03.339Z,18.75
2023-01-23T18:38:48.301Z,11.85
2023-01-23T18:41:29.417Z,11.38
2023-01-23T18:44:18.297Z,12.10
2023-01-23T18:47:11.240Z,13.50
2023-01-23T18:49:45.348Z,13.60
2023-01-23T18:52:53.268Z,17.77
2023-01-23T18:55:39.237Z,12.43
2023-01-23T18:59:10.394Z,11.80
2023-01-23T19:02:07.316Z,16.88
2023-01-23T19:04:58.253Z,54.92
2023-01-23T19:07:32.398Z,31.77
2023-01-23T19:10:22.297Z,31.20
2023-01-23T19:12:56.381Z,21.50
2023-01-23T19:16:02.357Z,143.45
2023-01-23T19:18:40.709Z,42.53
2023-01-23T19:21:31.251Z,27.20
2023-01-23T19:24:09.874Z,112.93
2023-01-23T19:26:57.293Z,100.38
2023-01-23T19:29:45.283Z,48.00
2023-01-23T19:32:19.429Z,41.13
2023-01-23T19:35:13.998Z,19.73
2023-01-23T19:37:48.319Z,28.13
2023-01-23T19:40:36.259Z,31.20
2023-01-23T19:43:15.594Z,13.73
2023-01-23T19:46:03.260Z,22.65
2023-01-23T19:48:43.358Z,18.55
2023-01-23T19:51:26.509Z,20.77
2023-01-23T19:54:07.248Z,15.90
2023-01-23T19:56:48.380Z,19.10
2023-01-23T19:59:29.276Z,24.08
2023-01-23T20:02:10.378Z,34.63
2023-01-23T20:04:51.356Z,56.00
2023-01-23T20:07:39.290Z,49.58
2023-01-23T20:10:13.362Z,47.05
2023-01-23T20:13:09.273Z,31.95
2023-01-23T20:16:03.300Z,28.05
2023-01-23T20:18:57.292Z,30.63
2023-01-23T20:21:44.270Z,29.13
2023-01-23T20:24:25.338Z,19.85
2023-01-23T20:27:06.213Z,29.15
2023-01-23T20:29:54.287Z,30.25
2023-01-23T20:32:34.299Z,35.55
2023-01-23T20:35:15.381Z,6.82
2023-01-23T20:37:56.287Z,5.45
2023-01-23T20:40:37.414Z,6.88
2023-01-23T20:43:17.291Z,15.00
2023-01-23T20:45:59.340Z,16.05
2023-01-23T20:48:43.295Z,17.15
2023-01-23T20:51:24.383Z,20.20
2023-01-23T20:54:05.268Z,8.32
2023-01-23T20:56:46.578Z,14.13
2023-01-23T20:59:28.255Z,18.48
2023-01-23T21:02:25.006Z,14.25
2023-01-23T21:05:06.253Z,12.65
2023-01-23T21:07:47.348Z,14.57
2023-01-23T21:10:27.284Z,22.23
2023-01-23T21:13:18.299Z,22.15
2023-01-23T21:16:00.123Z,22.60
2023-01-23T21:18:52.295Z,21.00
2023-01-23T21:21:26.225Z,13.68
2023-01-23T21:24:07.412Z,7.50
2023-01-23T21:26:48.276Z,8.52
2023-01-23T21:29:29.285Z,8.93
2023-01-23T21:32:10.454Z,12.50
2023-01-23T21:34:50.273Z,22.40
2023-01-23T21:37:31.364Z,20.17
2023-01-23T21:40:12.294Z,9.35
2023-01-23T21:42:53.364Z,7.53
2023-01-23T21:45:33.295Z,18.15
2023-01-23T21:48:21.305Z,18.17
2023-01-23T21:51:17.278Z,21.70
2023-01-23T21:54:05.275Z,20.48
2023-01-23T21:56:59.253Z,15.15
2023-01-23T21:59:47.300Z,8.18
2023-01-23T22:02:29.277Z,11.77
2023-01-23T22:05:23.577Z,6.95
2023-01-23T22:08:18.280Z,6.85
2023-01-23T22:11:05.265Z,6.53
2023-01-23T22:13:46.267Z,59.10
2023-01-23T22:16:50.773Z,45.70
2023-01-23T22:19:26.386Z,16.05
2023-01-23T22:22:13.276Z,21.55
2023-01-23T22:24:54.300Z,8.98
2023-01-23T22:27:41.302Z,8.90
2023-01-23T22:30:15.356Z,9.25
2023-01-23T22:33:03.269Z,6.95
2023-01-23T22:35:47.430Z,9.23
2023-01-23T22:38:27.285Z,9.82
2023-01-23T22:41:09.392Z,7.88
2023-01-23T22:43:49.260Z,10.15
2023-01-23T22:46:38.316Z,25.33
2023-01-23T22:49:12.283Z,47.35
2023-01-23T22:52:00.324Z,12.55
2023-01-23T22:54:34.239Z,8.88
2023-01-23T22:57:22.354Z,9.57
2023-01-23T22:59:56.215Z,5.35
2023-01-23T23:02:45.296Z,7.22
2023-01-23T23:05:27.752Z,6.15
2023-01-23T23:08:08.392Z,5.85
2023-01-23T23:10:49.283Z,7.68
2023-01-23T23:13:30.377Z,7.30
2023-01-23T23:16:24.297Z,7.15
2023-01-23T23:19:07.355Z,8.23
2023-01-23T23:21:48.295Z,6.18
2023-01-23T23:24:29.913Z,10.25
2023-01-23T23:27:10.276Z,15.10
2023-01-23T23:29:51.366Z,9.85
2023-01-23T23:32:32.314Z,11.32
2023-01-23T23:35:20.550Z,11.40
2023-01-23T23:38:14.308Z,210.73
2023-01-23T23:41:09.278Z,140.95
2023-01-23T23:43:43.416Z,123.20
2023-01-23T23:46:30.306Z,84.28
2023-01-23T23:49:11.291Z,56.55
2023-01-23T23:52:05.272Z,38.47
2023-01-23T23:54:52.262Z,37.55
2023-01-23T23:57:26.378Z,26.50
